METAR Data
IDs: Format: Raw Decoded Include TAF

Data at: 1505 UTC 12 Dec 2018

PAOM 121453Z AUTO 00000KT 10SM CLR M19/M21 A2906 RMK AO2 SLP840 T11891211 51006 TSNO
PAOM 121353Z AUTO 03005KT 10SM CLR M19/M20 A2905 RMK AO2 SLP839 T11891200 TSNO
PAOM 121253Z AUTO 00000KT 10SM CLR M18/M19 A2905 RMK AO2 SLP836 T11781194 TSNO
PAOM 121153Z AUTO 00000KT 10SM CLR M17/M19 A2904 RMK AO2 SLP834 70008 T11721194 11117 21178 51011 TSNO
PAOM 121053Z AUTO 00000KT 10SM CLR M17/M19 A2903 RMK AO2 SLP831 T11671189 TSNO
PAOM 120953Z AUTO 31003KT 10SM CLR M16/M18 A2902 RMK AO2 SLP827 T11611183 TSNO
PAOM 120853Z AUTO 00000KT 10SM CLR M15/M18 A2901 RMK AO2 SLP823 T11501178 410781156 51008 TSNO
PAOM 120753Z AUTO 00000KT 10SM CLR M12/M16 A2900 RMK AO2 SLP820 T11221161 TSNO
PAOM 120653Z AUTO 03007KT 10SM CLR M13/M17 A2900 RMK AO2 SLP820 T11281167 TSNO
PAOM 120553Z AUTO 02004KT 10SM CLR M13/M17 A2898 RMK AO2 SLP815 60000 T11281167 11078 21150 51008 TSNO
PAOM 120453Z AUTO 00000KT 10SM SCT095 M12/M16 A2898 RMK AO2 SLP813 T11221156 TSNO
PAOM 120353Z AUTO 03003KT 10SM OVC100 M12/M16 A2897 RMK AO2 SLP809 T11221156 TSNO
PAOM 120253Z AUTO 00000KT 10SM FEW100 M09/M14 A2896 RMK AO2 SLP807 60000 T10941144 53001 TSNO
PAOM 120153Z 03004KT 10SM OVC100 M10/M14 A2895 RMK AO2 SLP805 T11001139
PAOM 120053Z 04009KT 10SM FEW065 OVC080 M08/M13 A2895 RMK AO2 SNE2354B10E25 SLP804 P0000 T10781133
PAOM 112353Z 05006KT 5SM -SN BKN050 OVC065 M08/M12 A2896 RMK AO2 SNB08 SLP806 P0000 60001 T10831122 11078 21106 53009
PAOM 112253Z 04006KT 10SM OVC050 M08/M12 A2894 RMK AO2 SLP801 T10831122
PAOM 112153Z 03005KT 10SM OVC044 M08/M12 A2893 RMK AO2 SNE01B20E40 SLP799 P0000 T10831117
PAOM 112053Z 05005KT 5SM -SN BR OVC038 M08/M10 A2893 RMK AO2 SLP796 P0001 60001 T10831100 51013
PAOM 111953Z 00000KT 6SM -SN BR OVC048 M09/M10 A2892 RMK AO2 SNB1858 SLP793 P0000 T10891100
PAOM 111853Z 00000KT 10SM OVC060 M09/M10 A2890 RMK AO2 SNB1756E11 SLP788 P0000 T10941100
PAOM 111753Z 02003KT 10SM BKN046 BKN060 M10/M11 A2889 RMK AO2 SNE19 SLP784 P0000 60007 T11001106 11089 21100 53002
PAOM 111655Z 33004KT 4SM -SN BR OVC037 M09/M09 A2889 RMK AO2 P0000 T10941094
PAOM 111653Z 33004KT 4SM -SN BR OVC026 M09/M09 A2889 RMK AO2 SLP782 P0001 T10941094
PAOM 111609Z 00000KT 2SM -SN BR OVC026 M09/M10 A2889 RMK AO2 P0000 T10891100
PAOM 111553Z AUTO 00000KT 1 1/4SM -SN BR OVC022 M09/M09 A2888 RMK AO2 SLP782 P0001 T10891094 TSNO
PAOM 111530Z AUTO 00000KT 2SM -SN BR OVC026 M09/M09 A2888 RMK AO2 P0001 T10891094 TSNO
PAOM 111503Z AUTO 00000KT 1 3/4SM -SN BR OVC020 M09/M09 A2888 RMK AO2 P0000 T10891094 TSNO
PAOM 111453Z AUTO 31003KT 2SM -SN BR OVC024 M09/M09 A2887 RMK AO2 SLP778 P0002 60005 T10891094 51002 TSNO
PAOM 111353Z AUTO 29005KT 2 1/2SM -SN BR OVC026 M09/M09 A2887 RMK AO2 SLP777 P0002 T10891094 TSNO
PAOM 111345Z AUTO 29005KT 2SM -SN BR OVC024 M09/M09 A2887 RMK AO2 P0002 T10891094 TSNO
PAOM 111311Z AUTO 28004KT 1 1/2SM -SN BR OVC020 M09/M10 A2888 RMK AO2 P0001 T10941100 TSNO
PAOM 111253Z AUTO 29004KT 2SM -SN BR OVC024 M09/M10 A2887 RMK AO2 SLP778 P0001 T10941100 TSNO
PAOM 111238Z AUTO 29004KT 1 3/4SM -SN BR OVC020 M09/M10 A2887 RMK AO2 P0001 T10941100 TSNO
PAOM 111153Z AUTO 28005KT 2 1/2SM -SN BR OVC025 M10/M11 A2887 RMK AO2 SLP776 P0002 60002 70002 T11001106 11100 21128 51002 TSNO
PAOM 111151Z AUTO 28005KT 2 1/2SM -SN BR OVC025 M10/M11 A2887 RMK AO2 P0002 TSNO
PAOM 111131Z AUTO 30005KT 1 1/2SM -SN BR OVC025 M10/M11 A2887 RMK AO2 P0001 T11001106 TSNO
PAOM 111124Z AUTO 00000KT 2SM -SN BR OVC029 M10/M11 A2887 RMK AO2 P0001 T11001111 TSNO
PAOM 111053Z AUTO 00000KT 3SM -SN BR OVC038 M11/M12 A2887 RMK AO2 SLP776 P0000 T11061117 TSNO
PAOM 110953Z AUTO 00000KT 4SM -SN BR OVC038 M11/M12 A2886 RMK AO2 SNB04 SLP774 P0000 T11061117 TSNO
PAOM 110853Z AUTO 00000KT 8SM OVC047 M11/M12 A2886 RMK AO2 SNB11E31 SLP775 P0000 60000 T11061122 410891161 56006 TSNO
PAOM 110753Z AUTO 00000KT 10SM OVC048 M11/M14 A2886 RMK AO2 SLP775 T11111139 TSNO
PAOM 110653Z 31006KT 10SM FEW040 OVC050 M12/M15 A2887 RMK AO2 SLP777 T11221150
PAOM 110553Z 34007KT 10SM SCT045 BKN080 M13/M16 A2888 RMK AO2 SLP780 T11281156 11122 21156 58001
PAOM 110453Z 35003KT 10SM OVC046 M13/M16 A2889 RMK AO2 SLP783 T11331156
PAOM 110353Z 35009KT 10SM BKN046 OVC090 M13/M17 A2889 RMK AO2 SLP783 T11331167